sensor_id;sensor_type;location;lat;lon;timestamp;P1;durP1;ratioP1;P2;durP2;ratioP2
82176;SDS011;71758;48.714;9.584;2023-09-30T00:02:22;16.40;;;4.40;;
82176;SDS011;71758;48.714;9.584;2023-09-30T00:04:47;12.68;;;4.53;;
82176;SDS011;71758;48.714;9.584;2023-09-30T00:07:13;14.68;;;4.10;;
82176;SDS011;71758;48.714;9.584;2023-09-30T00:09:38;14.18;;;4.72;;
82176;SDS011;71758;48.714;9.584;2023-09-30T00:12:04;13.82;;;4.35;;
82176;SDS011;71758;48.714;9.584;2023-09-30T00:14:30;15.85;;;4.57;;
82176;SDS011;71758;48.714;9.584;2023-09-30T00:16:55;15.52;;;4.78;;
82176;SDS011;71758;48.714;9.584;2023-09-30T00:19:21;14.57;;;4.35;;
82176;SDS011;71758;48.714;9.584;2023-09-30T00:21:47;15.05;;;5.05;;
82176;SDS011;71758;48.714;9.584;2023-09-30T00:24:13;14.00;;;4.75;;
82176;SDS011;71758;48.714;9.584;2023-09-30T00:26:38;15.77;;;4.35;;
82176;SDS011;71758;48.714;9.584;2023-09-30T00:29:04;14.20;;;4.22;;
82176;SDS011;71758;48.714;9.584;2023-09-30T00:31:30;13.10;;;4.30;;
82176;SDS011;71758;48.714;9.584;2023-09-30T00:33:55;15.02;;;4.40;;
82176;SDS011;71758;48.714;9.584;2023-09-30T00:36:21;16.42;;;5.15;;
82176;SDS011;71758;48.714;9.584;2023-09-30T00:38:46;14.82;;;4.75;;
82176;SDS011;71758;48.714;9.584;2023-09-30T00:41:12;15.88;;;5.00;;
82176;SDS011;71758;48.714;9.584;2023-09-30T00:43:37;13.63;;;4.28;;
82176;SDS011;71758;48.714;9.584;2023-09-30T00:46:06;13.27;;;4.43;;
82176;SDS011;71758;48.714;9.584;2023-09-30T00:48:34;14.48;;;4.80;;
82176;SDS011;71758;48.714;9.584;2023-09-30T00:51:00;14.23;;;4.70;;
82176;SDS011;71758;48.714;9.584;2023-09-30T00:53:26;15.95;;;4.88;;
82176;SDS011;71758;48.714;9.584;2023-09-30T00:55:53;12.68;;;4.10;;
82176;SDS011;71758;48.714;9.584;2023-09-30T00:58:19;12.50;;;4.20;;
82176;SDS011;71758;48.714;9.584;2023-09-30T01:00:45;11.98;;;4.22;;
82176;SDS011;71758;48.714;9.584;2023-09-30T01:03:11;15.55;;;4.47;;
82176;SDS011;71758;48.714;9.584;2023-09-30T01:05:37;13.27;;;4.13;;
82176;SDS011;71758;48.714;9.584;2023-09-30T01:08:03;11.77;;;3.97;;
82176;SDS011;71758;48.714;9.584;2023-09-30T01:10:29;14.90;;;4.10;;
82176;SDS011;71758;48.714;9.584;2023-09-30T01:12:54;13.05;;;4.75;;
82176;SDS011;71758;48.714;9.584;2023-09-30T01:15:19;12.00;;;4.30;;
82176;SDS011;71758;48.714;9.584;2023-09-30T01:17:45;13.15;;;3.90;;
82176;SDS011;71758;48.714;9.584;2023-09-30T01:20:10;14.80;;;4.47;;
82176;SDS011;71758;48.714;9.584;2023-09-30T01:22:41;13.38;;;4.50;;
82176;SDS011;71758;48.714;9.584;2023-09-30T01:25:07;12.80;;;4.32;;
82176;SDS011;71758;48.714;9.584;2023-09-30T01:27:34;12.75;;;4.70;;
82176;SDS011;71758;48.714;9.584;2023-09-30T01:30:00;14.38;;;4.90;;
82176;SDS011;71758;48.714;9.584;2023-09-30T01:32:25;13.23;;;4.88;;
82176;SDS011;71758;48.714;9.584;2023-09-30T01:34:51;14.93;;;4.85;;
82176;SDS011;71758;48.714;9.584;2023-09-30T01:37:17;13.73;;;4.50;;
82176;SDS011;71758;48.714;9.584;2023-09-30T01:39:42;12.25;;;4.28;;
82176;SDS011;71758;48.714;9.584;2023-09-30T01:42:09;14.13;;;4.40;;
82176;SDS011;71758;48.714;9.584;2023-09-30T01:44:35;12.32;;;4.10;;
82176;SDS011;71758;48.714;9.584;2023-09-30T01:47:00;13.10;;;4.15;;
82176;SDS011;71758;48.714;9.584;2023-09-30T01:49:26;14.50;;;4.50;;
82176;SDS011;71758;48.714;9.584;2023-09-30T01:51:51;14.30;;;4.32;;
82176;SDS011;71758;48.714;9.584;2023-09-30T01:54:17;11.85;;;4.22;;
82176;SDS011;71758;48.714;9.584;2023-09-30T01:56:42;9.85;;;3.83;;
82176;SDS011;71758;48.714;9.584;2023-09-30T01:59:07;14.35;;;4.25;;
82176;SDS011;71758;48.714;9.584;2023-09-30T02:01:33;13.75;;;4.38;;
82176;SDS011;71758;48.714;9.584;2023-09-30T02:03:58;13.10;;;4.28;;
82176;SDS011;71758;48.714;9.584;2023-09-30T02:06:23;14.05;;;4.47;;
82176;SDS011;71758;48.714;9.584;2023-09-30T02:08:49;13.63;;;4.10;;
82176;SDS011;71758;48.714;9.584;2023-09-30T02:11:14;12.98;;;4.25;;
82176;SDS011;71758;48.714;9.584;2023-09-30T02:13:42;14.00;;;4.28;;
82176;SDS011;71758;48.714;9.584;2023-09-30T02:16:12;13.70;;;4.13;;
82176;SDS011;71758;48.714;9.584;2023-09-30T02:18:38;11.52;;;4.10;;
82176;SDS011;71758;48.714;9.584;2023-09-30T02:21:06;14.63;;;4.07;;
82176;SDS011;71758;48.714;9.584;2023-09-30T02:23:32;12.57;;;4.43;;
82176;SDS011;71758;48.714;9.584;2023-09-30T02:25:58;11.65;;;4.32;;
82176;SDS011;71758;48.714;9.584;2023-09-30T02:28:23;16.35;;;4.45;;
82176;SDS011;71758;48.714;9.584;2023-09-30T02:30:49;12.88;;;4.32;;
82176;SDS011;71758;48.714;9.584;2023-09-30T02:33:14;13.85;;;4.85;;
82176;SDS011;71758;48.714;9.584;2023-09-30T02:35:43;11.73;;;4.53;;
82176;SDS011;71758;48.714;9.584;2023-09-30T02:38:09;12.88;;;4.57;;
82176;SDS011;71758;48.714;9.584;2023-09-30T02:40:36;14.20;;;4.30;;
82176;SDS011;71758;48.714;9.584;2023-09-30T02:43:01;14.82;;;4.43;;
82176;SDS011;71758;48.714;9.584;2023-09-30T02:45:27;11.48;;;4.30;;
82176;SDS011;71758;48.714;9.584;2023-09-30T02:47:52;14.60;;;4.70;;
82176;SDS011;71758;48.714;9.584;2023-09-30T02:50:17;12.93;;;4.85;;
82176;SDS011;71758;48.714;9.584;2023-09-30T02:52:43;10.52;;;3.55;;
82176;SDS011;71758;48.714;9.584;2023-09-30T02:55:09;11.32;;;4.00;;
82176;SDS011;71758;48.714;9.584;2023-09-30T02:57:35;10.55;;;3.60;;
82176;SDS011;71758;48.714;9.584;2023-09-30T03:00:03;13.73;;;4.35;;
82176;SDS011;71758;48.714;9.584;2023-09-30T03:02:39;13.15;;;4.13;;
82176;SDS011;71758;48.714;9.584;2023-09-30T03:05:05;12.90;;;4.18;;
82176;SDS011;71758;48.714;9.584;2023-09-30T03:07:32;9.88;;;3.33;;
82176;SDS011;71758;48.714;9.584;2023-09-30T03:09:58;11.98;;;4.05;;
82176;SDS011;71758;48.714;9.584;2023-09-30T03:12:25;11.27;;;3.92;;
82176;SDS011;71758;48.714;9.584;2023-09-30T03:14:51;11.95;;;3.90;;
82176;SDS011;71758;48.714;9.584;2023-09-30T03:17:16;12.55;;;4.07;;
82176;SDS011;71758;48.714;9.584;2023-09-30T03:19:42;11.88;;;3.60;;
82176;SDS011;71758;48.714;9.584;2023-09-30T03:22:08;12.07;;;4.50;;
82176;SDS011;71758;48.714;9.584;2023-09-30T03:24:36;13.38;;;4.72;;
82176;SDS011;71758;48.714;9.584;2023-09-30T03:27:03;10.95;;;4.28;;
82176;SDS011;71758;48.714;9.584;2023-09-30T03:29:28;11.30;;;4.20;;
82176;SDS011;71758;48.714;9.584;2023-09-30T03:31:53;11.63;;;4.43;;
82176;SDS011;71758;48.714;9.584;2023-09-30T03:34:19;11.35;;;4.63;;
82176;SDS011;71758;48.714;9.584;2023-09-30T03:36:45;13.40;;;4.93;;
82176;SDS011;71758;48.714;9.584;2023-09-30T03:39:10;10.18;;;4.68;;
82176;SDS011;71758;48.714;9.584;2023-09-30T03:41:39;13.18;;;5.35;;
82176;SDS011;71758;48.714;9.584;2023-09-30T03:44:05;10.63;;;4.20;;
82176;SDS011;71758;48.714;9.584;2023-09-30T03:46:31;9.43;;;4.10;;
82176;SDS011;71758;48.714;9.584;2023-09-30T03:48:56;11.73;;;4.85;;
82176;SDS011;71758;48.714;9.584;2023-09-30T03:51:21;9.65;;;4.60;;
82176;SDS011;71758;48.714;9.584;2023-09-30T03:53:50;13.57;;;4.90;;
82176;SDS011;71758;48.714;9.584;2023-09-30T03:56:15;11.27;;;4.97;;
82176;SDS011;71758;48.714;9.584;2023-09-30T03:58:41;9.35;;;4.68;;
82176;SDS011;71758;48.714;9.584;2023-09-30T04:01:07;9.80;;;4.38;;
82176;SDS011;71758;48.714;9.584;2023-09-30T04:03:35;11.25;;;4.25;;
82176;SDS011;71758;48.714;9.584;2023-09-30T04:06:04;8.25;;;3.67;;
82176;SDS011;71758;48.714;9.584;2023-09-30T04:08:30;10.70;;;3.92;;
82176;SDS011;71758;48.714;9.584;2023-09-30T04:10:58;11.07;;;4.13;;
82176;SDS011;71758;48.714;9.584;2023-09-30T04:13:28;8.13;;;3.72;;
82176;SDS011;71758;48.714;9.584;2023-09-30T04:15:54;9.63;;;4.47;;
82176;SDS011;71758;48.714;9.584;2023-09-30T04:18:20;12.43;;;4.45;;
82176;SDS011;71758;48.714;9.584;2023-09-30T04:20:47;10.07;;;4.40;;
82176;SDS011;71758;48.714;9.584;2023-09-30T04:23:12;9.77;;;4.32;;
82176;SDS011;71758;48.714;9.584;2023-09-30T04:25:38;8.93;;;4.30;;
82176;SDS011;71758;48.714;9.584;2023-09-30T04:28:05;13.10;;;4.32;;
82176;SDS011;71758;48.714;9.584;2023-09-30T04:30:30;7.80;;;3.90;;
82176;SDS011;71758;48.714;9.584;2023-09-30T04:32:58;10.25;;;3.88;;
82176;SDS011;71758;48.714;9.584;2023-09-30T04:35:24;8.10;;;3.50;;
82176;SDS011;71758;48.714;9.584;2023-09-30T04:37:50;11.68;;;3.58;;
82176;SDS011;71758;48.714;9.584;2023-09-30T04:40:16;10.88;;;3.90;;
82176;SDS011;71758;48.714;9.584;2023-09-30T04:42:44;9.15;;;3.83;;
82176;SDS011;71758;48.714;9.584;2023-09-30T04:45:13;9.10;;;3.97;;
82176;SDS011;71758;48.714;9.584;2023-09-30T04:47:41;7.93;;;3.67;;
82176;SDS011;71758;48.714;9.584;2023-09-30T04:50:09;9.80;;;3.40;;
82176;SDS011;71758;48.714;9.584;2023-09-30T04:52:36;7.05;;;3.70;;
82176;SDS011;71758;48.714;9.584;2023-09-30T04:55:02;9.90;;;4.05;;
82176;SDS011;71758;48.714;9.584;2023-09-30T04:57:31;8.80;;;3.35;;
82176;SDS011;71758;48.714;9.584;2023-09-30T04:59:59;8.60;;;3.65;;
82176;SDS011;71758;48.714;9.584;2023-09-30T05:02:24;7.72;;;3.45;;
82176;SDS011;71758;48.714;9.584;2023-09-30T05:04:50;9.52;;;3.70;;
82176;SDS011;71758;48.714;9.584;2023-09-30T05:07:17;9.48;;;4.00;;
82176;SDS011;71758;48.714;9.584;2023-09-30T05:09:42;8.02;;;3.95;;
82176;SDS011;71758;48.714;9.584;2023-09-30T05:12:08;8.57;;;4.05;;
82176;SDS011;71758;48.714;9.584;2023-09-30T05:14:35;11.00;;;4.78;;
82176;SDS011;71758;48.714;9.584;2023-09-30T05:17:01;10.80;;;4.72;;
82176;SDS011;71758;48.714;9.584;2023-09-30T05:19:27;9.07;;;4.45;;
82176;SDS011;71758;48.714;9.584;2023-09-30T05:21:52;10.30;;;4.10;;
82176;SDS011;71758;48.714;9.584;2023-09-30T05:24:18;9.93;;;4.47;;
82176;SDS011;71758;48.714;9.584;2023-09-30T05:26:44;10.50;;;4.50;;
82176;SDS011;71758;48.714;9.584;2023-09-30T05:29:10;10.45;;;3.88;;
82176;SDS011;71758;48.714;9.584;2023-09-30T05:31:35;10.23;;;4.25;;
82176;SDS011;71758;48.714;9.584;2023-09-30T05:34:01;7.38;;;3.58;;
82176;SDS011;71758;48.714;9.584;2023-09-30T05:36:27;10.35;;;3.65;;
82176;SDS011;71758;48.714;9.584;2023-09-30T05:38:54;9.80;;;3.97;;
82176;SDS011;71758;48.714;9.584;2023-09-30T05:41:20;10.65;;;3.70;;
82176;SDS011;71758;48.714;9.584;2023-09-30T05:43:46;8.07;;;3.88;;
82176;SDS011;71758;48.714;9.584;2023-09-30T05:46:12;13.82;;;4.40;;
82176;SDS011;71758;48.714;9.584;2023-09-30T05:48:38;8.45;;;4.50;;
82176;SDS011;71758;48.714;9.584;2023-09-30T05:51:04;8.98;;;4.22;;
82176;SDS011;71758;48.714;9.584;2023-09-30T05:53:31;8.65;;;4.43;;
82176;SDS011;71758;48.714;9.584;2023-09-30T05:55:57;9.27;;;4.05;;
82176;SDS011;71758;48.714;9.584;2023-09-30T05:58:24;10.32;;;4.22;;
82176;SDS011;71758;48.714;9.584;2023-09-30T06:00:50;9.95;;;4.22;;
82176;SDS011;71758;48.714;9.584;2023-09-30T06:03:16;12.45;;;4.68;;
82176;SDS011;71758;48.714;9.584;2023-09-30T06:05:42;11.27;;;4.85;;
82176;SDS011;71758;48.714;9.584;2023-09-30T06:08:08;9.05;;;4.88;;
82176;SDS011;71758;48.714;9.584;2023-09-30T06:10:39;11.50;;;4.50;;
82176;SDS011;71758;48.714;9.584;2023-09-30T06:13:08;10.05;;;4.53;;
82176;SDS011;71758;48.714;9.584;2023-09-30T06:15:34;11.80;;;4.82;;
82176;SDS011;71758;48.714;9.584;2023-09-30T06:18:02;8.73;;;4.43;;
82176;SDS011;71758;48.714;9.584;2023-09-30T06:20:29;12.00;;;5.10;;
82176;SDS011;71758;48.714;9.584;2023-09-30T06:22:55;9.15;;;4.63;;
82176;SDS011;71758;48.714;9.584;2023-09-30T06:25:21;14.63;;;4.90;;
82176;SDS011;71758;48.714;9.584;2023-09-30T06:27:49;9.38;;;4.60;;
82176;SDS011;71758;48.714;9.584;2023-09-30T06:30:15;8.35;;;4.13;;
82176;SDS011;71758;48.714;9.584;2023-09-30T06:32:41;9.57;;;4.80;;
82176;SDS011;71758;48.714;9.584;2023-09-30T06:35:07;8.35;;;4.57;;
82176;SDS011;71758;48.714;9.584;2023-09-30T06:37:38;9.98;;;4.00;;
82176;SDS011;71758;48.714;9.584;2023-09-30T06:40:05;7.82;;;3.95;;
82176;SDS011;71758;48.714;9.584;2023-09-30T06:42:34;12.25;;;4.15;;
82176;SDS011;71758;48.714;9.584;2023-09-30T06:45:04;11.43;;;4.50;;
82176;SDS011;71758;48.714;9.584;2023-09-30T06:47:31;9.50;;;4.57;;
82176;SDS011;71758;48.714;9.584;2023-09-30T06:50:04;9.23;;;4.00;;
82176;SDS011;71758;48.714;9.584;2023-09-30T06:52:37;12.40;;;4.75;;
82176;SDS011;71758;48.714;9.584;2023-09-30T06:55:03;11.13;;;5.15;;
82176;SDS011;71758;48.714;9.584;2023-09-30T06:57:33;11.27;;;4.45;;
82176;SDS011;71758;48.714;9.584;2023-09-30T07:00:04;11.13;;;4.75;;
82176;SDS011;71758;48.714;9.584;2023-09-30T07:02:33;8.88;;;4.15;;
82176;SDS011;71758;48.714;9.584;2023-09-30T07:04:59;9.77;;;4.55;;
82176;SDS011;71758;48.714;9.584;2023-09-30T07:07:24;10.25;;;4.47;;
82176;SDS011;71758;48.714;9.584;2023-09-30T07:09:50;13.80;;;5.00;;
82176;SDS011;71758;48.714;9.584;2023-09-30T07:12:15;9.07;;;4.53;;
82176;SDS011;71758;48.714;9.584;2023-09-30T07:14:40;11.82;;;5.15;;
82176;SDS011;71758;48.714;9.584;2023-09-30T07:17:06;12.32;;;5.18;;
82176;SDS011;71758;48.714;9.584;2023-09-30T07:19:31;10.13;;;4.70;;
82176;SDS011;71758;48.714;9.584;2023-09-30T07:21:57;10.00;;;4.43;;
82176;SDS011;71758;48.714;9.584;2023-09-30T07:24:22;10.85;;;4.55;;
82176;SDS011;71758;48.714;9.584;2023-09-30T07:26:48;11.38;;;4.18;;
82176;SDS011;71758;48.714;9.584;2023-09-30T07:29:13;9.02;;;3.78;;
82176;SDS011;71758;48.714;9.584;2023-09-30T07:31:39;10.00;;;4.00;;
82176;SDS011;71758;48.714;9.584;2023-09-30T07:34:04;8.70;;;4.30;;
82176;SDS011;71758;48.714;9.584;2023-09-30T07:36:31;11.23;;;4.35;;
82176;SDS011;71758;48.714;9.584;2023-09-30T07:38:56;9.00;;;4.40;;
82176;SDS011;71758;48.714;9.584;2023-09-30T07:41:22;11.13;;;4.40;;
82176;SDS011;71758;48.714;9.584;2023-09-30T07:43:47;11.68;;;4.15;;
82176;SDS011;71758;48.714;9.584;2023-09-30T07:46:12;11.77;;;4.05;;
82176;SDS011;71758;48.714;9.584;2023-09-30T07:48:40;8.38;;;3.75;;
82176;SDS011;71758;48.714;9.584;2023-09-30T07:51:05;10.10;;;3.80;;
82176;SDS011;71758;48.714;9.584;2023-09-30T07:53:34;7.55;;;3.60;;
82176;SDS011;71758;48.714;9.584;2023-09-30T07:56:00;9.82;;;4.18;;
82176;SDS011;71758;48.714;9.584;2023-09-30T07:58:25;11.40;;;4.05;;
82176;SDS011;71758;48.714;9.584;2023-09-30T08:00:51;9.57;;;4.15;;
82176;SDS011;71758;48.714;9.584;2023-09-30T08:03:16;9.05;;;4.32;;
82176;SDS011;71758;48.714;9.584;2023-09-30T08:05:41;6.85;;;3.40;;
82176;SDS011;71758;48.714;9.584;2023-09-30T08:08:07;10.43;;;3.58;;
82176;SDS011;71758;48.714;9.584;2023-09-30T08:10:33;8.85;;;3.60;;
82176;SDS011;71758;48.714;9.584;2023-09-30T08:12:58;11.32;;;3.50;;
82176;SDS011;71758;48.714;9.584;2023-09-30T08:17:52;7.88;;;3.28;;
82176;SDS011;71758;48.714;9.584;2023-09-30T08:20:17;9.48;;;3.25;;
82176;SDS011;71758;48.714;9.584;2023-09-30T08:22:43;9.25;;;3.05;;
82176;SDS011;71758;48.714;9.584;2023-09-30T08:25:09;10.63;;;3.50;;
82176;SDS011;71758;48.714;9.584;2023-09-30T08:27:36;10.23;;;3.28;;
82176;SDS011;71758;48.714;9.584;2023-09-30T08:30:02;11.18;;;3.28;;
82176;SDS011;71758;48.714;9.584;2023-09-30T08:32:32;9.57;;;3.67;;
82176;SDS011;71758;48.714;9.584;2023-09-30T08:34:58;7.90;;;3.58;;
82176;SDS011;71758;48.714;9.584;2023-09-30T08:37:23;6.57;;;2.78;;
82176;SDS011;71758;48.714;9.584;2023-09-30T08:39:49;7.25;;;3.47;;
82176;SDS011;71758;48.714;9.584;2023-09-30T08:42:15;27.67;;;5.22;;
82176;SDS011;71758;48.714;9.584;2023-09-30T08:44:43;9.07;;;3.63;;
82176;SDS011;71758;48.714;9.584;2023-09-30T08:47:09;11.65;;;3.33;;
82176;SDS011;71758;48.714;9.584;2023-09-30T08:49:38;7.70;;;3.10;;
82176;SDS011;71758;48.714;9.584;2023-09-30T08:52:06;15.13;;;4.05;;
82176;SDS011;71758;48.714;9.584;2023-09-30T08:54:34;7.75;;;3.58;;
82176;SDS011;71758;48.714;9.584;2023-09-30T08:57:00;6.40;;;3.20;;
82176;SDS011;71758;48.714;9.584;2023-09-30T08:59:25;8.05;;;3.47;;
82176;SDS011;71758;48.714;9.584;2023-09-30T09:01:51;7.50;;;3.42;;
82176;SDS011;71758;48.714;9.584;2023-09-30T09:04:17;8.70;;;3.17;;
82176;SDS011;71758;48.714;9.584;2023-09-30T09:06:42;7.40;;;3.22;;
82176;SDS011;71758;48.714;9.584;2023-09-30T09:09:15;8.35;;;3.70;;
82176;SDS011;71758;48.714;9.584;2023-09-30T09:11:47;9.50;;;3.38;;
82176;SDS011;71758;48.714;9.584;2023-09-30T09:14:12;9.65;;;3.60;;
82176;SDS011;71758;48.714;9.584;2023-09-30T09:16:50;9.88;;;3.42;;
82176;SDS011;71758;48.714;9.584;2023-09-30T09:21:53;7.18;;;3.58;;
82176;SDS011;71758;48.714;9.584;2023-09-30T09:24:28;8.35;;;3.42;;
82176;SDS011;71758;48.714;9.584;2023-09-30T09:29:49;9.13;;;3.40;;
82176;SDS011;71758;48.714;9.584;2023-09-30T09:32:15;9.80;;;3.60;;
82176;SDS011;71758;48.714;9.584;2023-09-30T09:34:42;9.52;;;3.63;;
82176;SDS011;71758;48.714;9.584;2023-09-30T09:37:15;8.65;;;3.40;;
82176;SDS011;71758;48.714;9.584;2023-09-30T09:44:52;8.27;;;3.88;;
82176;SDS011;71758;48.714;9.584;2023-09-30T09:47:19;9.90;;;3.15;;
82176;SDS011;71758;48.714;9.584;2023-09-30T09:49:46;9.18;;;3.45;;
82176;SDS011;71758;48.714;9.584;2023-09-30T09:52:12;9.82;;;3.35;;
82176;SDS011;71758;48.714;9.584;2023-09-30T09:54:40;9.35;;;3.33;;
82176;SDS011;71758;48.714;9.584;2023-09-30T09:57:06;7.55;;;3.38;;
82176;SDS011;71758;48.714;9.584;2023-09-30T09:59:34;8.77;;;3.45;;
82176;SDS011;71758;48.714;9.584;2023-09-30T10:02:01;8.57;;;3.55;;
82176;SDS011;71758;48.714;9.584;2023-09-30T10:04:31;8.65;;;3.38;;
82176;SDS011;71758;48.714;9.584;2023-09-30T10:06:58;7.88;;;3.55;;
82176;SDS011;71758;48.714;9.584;2023-09-30T10:09:24;8.50;;;3.60;;
82176;SDS011;71758;48.714;9.584;2023-09-30T10:11:56;8.45;;;3.33;;
82176;SDS011;71758;48.714;9.584;2023-09-30T10:14:32;9.52;;;3.30;;
82176;SDS011;71758;48.714;9.584;2023-09-30T10:16:58;6.90;;;2.92;;
82176;SDS011;71758;48.714;9.584;2023-09-30T10:19:24;10.10;;;3.75;;
82176;SDS011;71758;48.714;9.584;2023-09-30T10:24:47;7.70;;;3.45;;
82176;SDS011;71758;48.714;9.584;2023-09-30T10:30:08;8.25;;;3.78;;
82176;SDS011;71758;48.714;9.584;2023-09-30T10:35:16;7.95;;;2.78;;
82176;SDS011;71758;48.714;9.584;2023-09-30T10:40:49;9.23;;;3.50;;
82176;SDS011;71758;48.714;9.584;2023-09-30T10:45:56;7.80;;;3.40;;
82176;SDS011;71758;48.714;9.584;2023-09-30T10:50:50;9.95;;;3.72;;
82176;SDS011;71758;48.714;9.584;2023-09-30T10:53:16;8.75;;;3.50;;
82176;SDS011;71758;48.714;9.584;2023-09-30T10:55:44;10.07;;;3.47;;
82176;SDS011;71758;48.714;9.584;2023-09-30T10:58:10;11.85;;;3.97;;
82176;SDS011;71758;48.714;9.584;2023-09-30T11:00:36;9.90;;;4.50;;
82176;SDS011;71758;48.714;9.584;2023-09-30T11:03:03;9.93;;;3.95;;
82176;SDS011;71758;48.714;9.584;2023-09-30T11:05:30;9.23;;;3.25;;
82176;SDS011;71758;48.714;9.584;2023-09-30T11:07:58;8.80;;;3.63;;
82176;SDS011;71758;48.714;9.584;2023-09-30T11:10:28;10.68;;;4.10;;
82176;SDS011;71758;48.714;9.584;2023-09-30T11:12:56;9.68;;;3.30;;
82176;SDS011;71758;48.714;9.584;2023-09-30T11:15:22;9.70;;;3.10;;
82176;SDS011;71758;48.714;9.584;2023-09-30T11:17:49;9.18;;;3.50;;
82176;SDS011;71758;48.714;9.584;2023-09-30T11:20:16;10.57;;;3.63;;
82176;SDS011;71758;48.714;9.584;2023-09-30T11:22:43;8.00;;;3.22;;
82176;SDS011;71758;48.714;9.584;2023-09-30T11:25:19;9.55;;;3.58;;
82176;SDS011;71758;48.714;9.584;2023-09-30T11:27:45;8.60;;;3.45;;
82176;SDS011;71758;48.714;9.584;2023-09-30T11:30:12;12.13;;;3.40;;
82176;SDS011;71758;48.714;9.584;2023-09-30T11:32:37;12.60;;;3.97;;
82176;SDS011;71758;48.714;9.584;2023-09-30T11:35:08;10.82;;;3.65;;
82176;SDS011;71758;48.714;9.584;2023-09-30T11:37:34;10.70;;;3.60;;
82176;SDS011;71758;48.714;9.584;2023-09-30T11:40:10;11.45;;;3.70;;
82176;SDS011;71758;48.714;9.584;2023-09-30T11:42:39;11.15;;;4.13;;
82176;SDS011;71758;48.714;9.584;2023-09-30T11:45:18;10.45;;;3.75;;
82176;SDS011;71758;48.714;9.584;2023-09-30T11:47:49;9.63;;;4.28;;
82176;SDS011;71758;48.714;9.584;2023-09-30T11:50:14;13.93;;;4.30;;
82176;SDS011;71758;48.714;9.584;2023-09-30T11:52:43;11.60;;;4.22;;
82176;SDS011;71758;48.714;9.584;2023-09-30T11:55:10;13.32;;;4.43;;
82176;SDS011;71758;48.714;9.584;2023-09-30T11:57:37;12.60;;;4.50;;
82176;SDS011;71758;48.714;9.584;2023-09-30T12:00:04;11.80;;;4.70;;
82176;SDS011;71758;48.714;9.584;2023-09-30T12:05:05;10.95;;;4.70;;
82176;SDS011;71758;48.714;9.584;2023-09-30T12:07:36;11.68;;;4.30;;
82176;SDS011;71758;48.714;9.584;2023-09-30T12:10:02;11.98;;;4.38;;
82176;SDS011;71758;48.714;9.584;2023-09-30T12:12:28;12.07;;;5.25;;
82176;SDS011;71758;48.714;9.584;2023-09-30T12:14:53;14.02;;;5.15;;
82176;SDS011;71758;48.714;9.584;2023-09-30T12:17:20;11.80;;;4.28;;
82176;SDS011;71758;48.714;9.584;2023-09-30T12:19:46;12.25;;;4.50;;
82176;SDS011;71758;48.714;9.584;2023-09-30T12:22:13;13.75;;;4.78;;
82176;SDS011;71758;48.714;9.584;2023-09-30T12:24:38;10.90;;;4.80;;
82176;SDS011;71758;48.714;9.584;2023-09-30T12:27:04;13.32;;;5.20;;
82176;SDS011;71758;48.714;9.584;2023-09-30T12:29:30;12.50;;;4.93;;
82176;SDS011;71758;48.714;9.584;2023-09-30T12:31:56;13.23;;;5.25;;
82176;SDS011;71758;48.714;9.584;2023-09-30T12:34:22;14.93;;;5.00;;
82176;SDS011;71758;48.714;9.584;2023-09-30T12:39:16;10.50;;;4.35;;
82176;SDS011;71758;48.714;9.584;2023-09-30T12:41:42;12.05;;;4.85;;
82176;SDS011;71758;48.714;9.584;2023-09-30T12:44:09;12.68;;;4.70;;
82176;SDS011;71758;48.714;9.584;2023-09-30T12:46:35;13.98;;;5.03;;
82176;SDS011;71758;48.714;9.584;2023-09-30T12:49:04;11.90;;;4.43;;
82176;SDS011;71758;48.714;9.584;2023-09-30T12:51:33;12.02;;;4.95;;
82176;SDS011;71758;48.714;9.584;2023-09-30T12:53:59;11.98;;;4.57;;
82176;SDS011;71758;48.714;9.584;2023-09-30T12:56:25;12.93;;;4.93;;
82176;SDS011;71758;48.714;9.584;2023-09-30T12:58:51;10.55;;;4.40;;
82176;SDS011;71758;48.714;9.584;2023-09-30T13:01:17;12.77;;;4.85;;
82176;SDS011;71758;48.714;9.584;2023-09-30T13:03:46;11.45;;;4.78;;
82176;SDS011;71758;48.714;9.584;2023-09-30T15:03:25;12.35;;;4.43;;
82176;SDS011;71758;48.714;9.584;2023-09-30T15:05:56;12.32;;;4.15;;
82176;SDS011;71758;48.714;9.584;2023-09-30T15:08:23;12.45;;;4.80;;
82176;SDS011;71758;48.714;9.584;2023-09-30T15:10:48;12.60;;;4.13;;
82176;SDS011;71758;48.714;9.584;2023-09-30T15:13:14;12.32;;;4.30;;
82176;SDS011;71758;48.714;9.584;2023-09-30T15:15:39;9.30;;;4.40;;
82176;SDS011;71758;48.714;9.584;2023-09-30T15:18:04;13.55;;;4.47;;
82176;SDS011;71758;48.714;9.584;2023-09-30T15:20:30;15.40;;;4.68;;
82176;SDS011;71758;48.714;9.584;2023-09-30T15:22:56;9.98;;;4.13;;
82176;SDS011;71758;48.714;9.584;2023-09-30T15:25:21;13.38;;;5.10;;
82176;SDS011;71758;48.714;9.584;2023-09-30T15:27:47;11.65;;;4.38;;
82176;SDS011;71758;48.714;9.584;2023-09-30T15:30:12;10.57;;;4.07;;
82176;SDS011;71758;48.714;9.584;2023-09-30T15:32:39;10.93;;;4.55;;
82176;SDS011;71758;48.714;9.584;2023-09-30T15:35:06;12.93;;;4.20;;
82176;SDS011;71758;48.714;9.584;2023-09-30T15:37:32;13.35;;;4.45;;
82176;SDS011;71758;48.714;9.584;2023-09-30T15:39:57;9.88;;;4.25;;
82176;SDS011;71758;48.714;9.584;2023-09-30T15:42:23;11.80;;;4.47;;
82176;SDS011;71758;48.714;9.584;2023-09-30T15:44:48;10.32;;;3.85;;
82176;SDS011;71758;48.714;9.584;2023-09-30T15:47:18;10.55;;;4.35;;
82176;SDS011;71758;48.714;9.584;2023-09-30T15:49:44;12.02;;;5.00;;
82176;SDS011;71758;48.714;9.584;2023-09-30T15:52:10;10.15;;;4.30;;
82176;SDS011;71758;48.714;9.584;2023-09-30T15:54:35;12.38;;;6.30;;
82176;SDS011;71758;48.714;9.584;2023-09-30T15:57:00;14.73;;;6.88;;
82176;SDS011;71758;48.714;9.584;2023-09-30T15:59:26;10.48;;;4.93;;
82176;SDS011;71758;48.714;9.584;2023-09-30T16:01:51;10.77;;;4.13;;
82176;SDS011;71758;48.714;9.584;2023-09-30T16:04:17;13.13;;;4.95;;
82176;SDS011;71758;48.714;9.584;2023-09-30T16:06:42;13.23;;;4.38;;
82176;SDS011;71758;48.714;9.584;2023-09-30T16:09:08;13.32;;;5.00;;
82176;SDS011;71758;48.714;9.584;2023-09-30T16:11:34;11.75;;;5.45;;
82176;SDS011;71758;48.714;9.584;2023-09-30T16:13:59;12.80;;;5.38;;
82176;SDS011;71758;48.714;9.584;2023-09-30T16:16:25;13.73;;;4.47;;
82176;SDS011;71758;48.714;9.584;2023-09-30T16:18:50;13.25;;;4.93;;
82176;SDS011;71758;48.714;9.584;2023-09-30T16:21:15;11.88;;;4.47;;
82176;SDS011;71758;48.714;9.584;2023-09-30T16:23:41;12.98;;;4.28;;
82176;SDS011;71758;48.714;9.584;2023-09-30T16:26:06;12.13;;;4.40;;
82176;SDS011;71758;48.714;9.584;2023-09-30T16:28:31;11.60;;;4.28;;
82176;SDS011;71758;48.714;9.584;2023-09-30T16:31:00;10.02;;;4.25;;
82176;SDS011;71758;48.714;9.584;2023-09-30T16:33:25;10.05;;;4.00;;
82176;SDS011;71758;48.714;9.584;2023-09-30T16:35:52;11.45;;;4.25;;
82176;SDS011;71758;48.714;9.584;2023-09-30T16:38:18;11.73;;;4.43;;
82176;SDS011;71758;48.714;9.584;2023-09-30T16:40:47;12.95;;;4.15;;
82176;SDS011;71758;48.714;9.584;2023-09-30T16:43:13;12.15;;;4.50;;
82176;SDS011;71758;48.714;9.584;2023-09-30T16:45:39;13.25;;;4.07;;
82176;SDS011;71758;48.714;9.584;2023-09-30T16:48:04;11.90;;;3.92;;
82176;SDS011;71758;48.714;9.584;2023-09-30T16:50:30;10.23;;;4.13;;
82176;SDS011;71758;48.714;9.584;2023-09-30T16:52:55;10.05;;;3.90;;
82176;SDS011;71758;48.714;9.584;2023-09-30T16:55:20;10.27;;;4.28;;
82176;SDS011;71758;48.714;9.584;2023-09-30T16:57:46;10.35;;;4.72;;
82176;SDS011;71758;48.714;9.584;2023-09-30T17:00:11;11.32;;;5.13;;
82176;SDS011;71758;48.714;9.584;2023-09-30T17:02:40;11.85;;;4.53;;
82176;SDS011;71758;48.714;9.584;2023-09-30T17:05:06;10.50;;;4.25;;
82176;SDS011;71758;48.714;9.584;2023-09-30T17:07:32;12.35;;;4.53;;